sensor_id;sensor_type;location;lat;lon;timestamp;temperature;humidity
57652;DHT22;43480;53.116;6.734;2023-01-26T00:01:42;0.20;99.90
57652;DHT22;43480;53.116;6.734;2023-01-26T00:04:09;0.20;99.90
57652;DHT22;43480;53.116;6.734;2023-01-26T00:06:34;0.30;99.90
57652;DHT22;43480;53.116;6.734;2023-01-26T00:09:00;0.20;99.90
57652;DHT22;43480;53.116;6.734;2023-01-26T00:11:26;0.20;99.90
57652;DHT22;43480;53.116;6.734;2023-01-26T00:13:53;0.20;99.90
57652;DHT22;43480;53.116;6.734;2023-01-26T00:16:20;0.20;99.90
57652;DHT22;43480;53.116;6.734;2023-01-26T00:18:45;0.20;99.90
57652;DHT22;43480;53.116;6.734;2023-01-26T00:21:12;0.20;99.90
57652;DHT22;43480;53.116;6.734;2023-01-26T00:23:38;0.20;99.90
57652;DHT22;43480;53.116;6.734;2023-01-26T00:26:04;0.20;99.90
57652;DHT22;43480;53.116;6.734;2023-01-26T00:28:30;0.20;99.90
57652;DHT22;43480;53.116;6.734;2023-01-26T00:31:05;0.20;99.90
57652;DHT22;43480;53.116;6.734;2023-01-26T00:33:31;0.20;99.90
57652;DHT22;43480;53.116;6.734;2023-01-26T00:35:57;0.20;99.90
57652;DHT22;43480;53.116;6.734;2023-01-26T00:38:22;0.30;99.90
57652;DHT22;43480;53.116;6.734;2023-01-26T00:40:48;0.20;99.90
57652;DHT22;43480;53.116;6.734;2023-01-26T00:43:14;0.30;99.90
57652;DHT22;43480;53.116;6.734;2023-01-26T00:45:39;0.30;99.90
57652;DHT22;43480;53.116;6.734;2023-01-26T00:48:05;0.30;99.90
57652;DHT22;43480;53.116;6.734;2023-01-26T00:50:30;0.30;99.90
57652;DHT22;43480;53.116;6.734;2023-01-26T00:52:57;0.30;99.90
57652;DHT22;43480;53.116;6.734;2023-01-26T00:55:23;0.30;99.90
57652;DHT22;43480;53.116;6.734;2023-01-26T00:57:54;0.30;99.90
57652;DHT22;43480;53.116;6.734;2023-01-26T01:00:19;0.30;99.90
57652;DHT22;43480;53.116;6.734;2023-01-26T01:02:45;0.30;99.90
57652;DHT22;43480;53.116;6.734;2023-01-26T01:05:10;0.30;99.90
57652;DHT22;43480;53.116;6.734;2023-01-26T01:07:36;0.30;99.90
57652;DHT22;43480;53.116;6.734;2023-01-26T01:10:02;0.30;99.90
57652;DHT22;43480;53.116;6.734;2023-01-26T01:12:27;0.30;99.90
57652;DHT22;43480;53.116;6.734;2023-01-26T01:14:53;0.30;99.90
57652;DHT22;43480;53.116;6.734;2023-01-26T01:17:19;0.40;99.90
57652;DHT22;43480;53.116;6.734;2023-01-26T01:19:44;0.40;99.90
57652;DHT22;43480;53.116;6.734;2023-01-26T01:22:10;0.40;99.90
57652;DHT22;43480;53.116;6.734;2023-01-26T01:24:35;0.40;99.90
57652;DHT22;43480;53.116;6.734;2023-01-26T01:27:01;0.40;99.90
57652;DHT22;43480;53.116;6.734;2023-01-26T01:29:27;0.30;99.90
57652;DHT22;43480;53.116;6.734;2023-01-26T01:31:53;0.40;99.90
57652;DHT22;43480;53.116;6.734;2023-01-26T01:34:19;0.40;99.90
57652;DHT22;43480;53.116;6.734;2023-01-26T01:36:44;0.40;99.90
57652;DHT22;43480;53.116;6.734;2023-01-26T01:39:10;0.40;99.90
57652;DHT22;43480;53.116;6.734;2023-01-26T01:41:35;0.40;99.90
57652;DHT22;43480;53.116;6.734;2023-01-26T01:44:20;0.40;99.90
57652;DHT22;43480;53.116;6.734;2023-01-26T01:46:54;0.40;99.90
57652;DHT22;43480;53.116;6.734;2023-01-26T01:49:37;0.40;99.90
57652;DHT22;43480;53.116;6.734;2023-01-26T01:52:05;0.50;99.90
57652;DHT22;43480;53.116;6.734;2023-01-26T01:54:33;0.50;99.90
57652;DHT22;43480;53.116;6.734;2023-01-26T01:57:01;0.40;99.90
57652;DHT22;43480;53.116;6.734;2023-01-26T01:59:28;0.50;99.90
57652;DHT22;43480;53.116;6.734;2023-01-26T02:01:54;0.50;99.90
57652;DHT22;43480;53.116;6.734;2023-01-26T02:04:20;0.50;99.90
57652;DHT22;43480;53.116;6.734;2023-01-26T02:09:12;0.50;99.90
57652;DHT22;43480;53.116;6.734;2023-01-26T02:11:58;0.50;99.90
57652;DHT22;43480;53.116;6.734;2023-01-26T02:14:25;0.50;99.90
57652;DHT22;43480;53.116;6.734;2023-01-26T02:16:51;0.50;99.90
57652;DHT22;43480;53.116;6.734;2023-01-26T02:19:19;0.50;99.90
57652;DHT22;43480;53.116;6.734;2023-01-26T02:21:46;0.50;99.90
57652;DHT22;43480;53.116;6.734;2023-01-26T02:24:24;0.50;99.90
57652;DHT22;43480;53.116;6.734;2023-01-26T02:26:50;0.50;99.90
57652;DHT22;43480;53.116;6.734;2023-01-26T02:29:17;0.50;99.90
57652;DHT22;43480;53.116;6.734;2023-01-26T02:31:43;0.50;99.90
57652;DHT22;43480;53.116;6.734;2023-01-26T02:34:08;0.50;99.90
57652;DHT22;43480;53.116;6.734;2023-01-26T02:36:34;0.50;99.90
57652;DHT22;43480;53.116;6.734;2023-01-26T02:39:07;0.50;99.90
57652;DHT22;43480;53.116;6.734;2023-01-26T02:41:34;0.60;99.90
57652;DHT22;43480;53.116;6.734;2023-01-26T02:44:18;0.60;99.90
57652;DHT22;43480;53.116;6.734;2023-01-26T02:46:44;0.50;99.90
57652;DHT22;43480;53.116;6.734;2023-01-26T02:49:09;0.60;99.90
57652;DHT22;43480;53.116;6.734;2023-01-26T02:51:53;0.60;99.90
57652;DHT22;43480;53.116;6.734;2023-01-26T02:54:19;0.60;99.90
57652;DHT22;43480;53.116;6.734;2023-01-26T02:57:03;0.60;99.90
57652;DHT22;43480;53.116;6.734;2023-01-26T02:59:30;0.60;99.90
57652;DHT22;43480;53.116;6.734;2023-01-26T03:01:56;0.60;99.90
57652;DHT22;43480;53.116;6.734;2023-01-26T03:04:21;0.60;99.90
57652;DHT22;43480;53.116;6.734;2023-01-26T03:06:47;0.60;99.90
57652;DHT22;43480;53.116;6.734;2023-01-26T03:09:13;0.70;99.90
57652;DHT22;43480;53.116;6.734;2023-01-26T03:11:38;0.60;99.90
57652;DHT22;43480;53.116;6.734;2023-01-26T03:14:08;0.70;99.90
57652;DHT22;43480;53.116;6.734;2023-01-26T03:16:33;0.70;99.90
57652;DHT22;43480;53.116;6.734;2023-01-26T03:18:59;0.70;99.90
57652;DHT22;43480;53.116;6.734;2023-01-26T03:21:28;0.70;99.90
57652;DHT22;43480;53.116;6.734;2023-01-26T03:24:12;0.70;99.90
57652;DHT22;43480;53.116;6.734;2023-01-26T03:26:56;0.70;99.90
57652;DHT22;43480;53.116;6.734;2023-01-26T03:29:40;0.70;99.90
57652;DHT22;43480;53.116;6.734;2023-01-26T03:32:05;0.80;99.90
57652;DHT22;43480;53.116;6.734;2023-01-26T03:34:31;0.70;99.90
57652;DHT22;43480;53.116;6.734;2023-01-26T03:36:56;0.70;99.90
57652;DHT22;43480;53.116;6.734;2023-01-26T03:39:22;0.70;99.90
57652;DHT22;43480;53.116;6.734;2023-01-26T03:42:06;0.70;99.90
57652;DHT22;43480;53.116;6.734;2023-01-26T03:44:50;0.80;99.90
57652;DHT22;43480;53.116;6.734;2023-01-26T03:47:35;0.70;99.90
57652;DHT22;43480;53.116;6.734;2023-01-26T03:50:19;0.80;99.90
57652;DHT22;43480;53.116;6.734;2023-01-26T03:53:11;0.70;99.90
57652;DHT22;43480;53.116;6.734;2023-01-26T03:55:55;0.80;99.90
57652;DHT22;43480;53.116;6.734;2023-01-26T03:58:39;0.80;99.90
57652;DHT22;43480;53.116;6.734;2023-01-26T04:01:05;0.80;99.90
57652;DHT22;43480;53.116;6.734;2023-01-26T04:03:31;0.80;99.90
57652;DHT22;43480;53.116;6.734;2023-01-26T04:06:15;0.80;99.90
57652;DHT22;43480;53.116;6.734;2023-01-26T04:08:59;0.80;99.90
57652;DHT22;43480;53.116;6.734;2023-01-26T04:11:24;0.80;99.90
57652;DHT22;43480;53.116;6.734;2023-01-26T04:13:50;0.90;99.90
57652;DHT22;43480;53.116;6.734;2023-01-26T04:16:34;0.90;99.90
57652;DHT22;43480;53.116;6.734;2023-01-26T04:19:18;0.90;99.90
57652;DHT22;43480;53.116;6.734;2023-01-26T04:22:02;0.80;99.90
57652;DHT22;43480;53.116;6.734;2023-01-26T04:24:27;0.90;99.90
57652;DHT22;43480;53.116;6.734;2023-01-26T04:26:53;0.90;99.90
57652;DHT22;43480;53.116;6.734;2023-01-26T04:29:18;0.90;99.90
57652;DHT22;43480;53.116;6.734;2023-01-26T04:31:44;0.90;99.90
57652;DHT22;43480;53.116;6.734;2023-01-26T04:34:10;0.90;99.90
57652;DHT22;43480;53.116;6.734;2023-01-26T04:36:37;0.90;99.90
57652;DHT22;43480;53.116;6.734;2023-01-26T04:39:02;0.90;99.90
57652;DHT22;43480;53.116;6.734;2023-01-26T04:41:28;0.90;99.90
57652;DHT22;43480;53.116;6.734;2023-01-26T04:43:54;0.90;99.90
57652;DHT22;43480;53.116;6.734;2023-01-26T04:46:20;0.90;99.90
57652;DHT22;43480;53.116;6.734;2023-01-26T04:48:45;0.90;99.90
57652;DHT22;43480;53.116;6.734;2023-01-26T04:51:12;1.00;99.90
57652;DHT22;43480;53.116;6.734;2023-01-26T04:53:38;1.00;99.90
57652;DHT22;43480;53.116;6.734;2023-01-26T04:56:03;1.00;99.90
57652;DHT22;43480;53.116;6.734;2023-01-26T04:58:29;1.00;99.90
57652;DHT22;43480;53.116;6.734;2023-01-26T05:00:55;1.00;99.90
57652;DHT22;43480;53.116;6.734;2023-01-26T05:03:22;1.00;99.90
57652;DHT22;43480;53.116;6.734;2023-01-26T05:05:48;1.00;99.90
57652;DHT22;43480;53.116;6.734;2023-01-26T05:08:14;1.00;99.90
57652;DHT22;43480;53.116;6.734;2023-01-26T05:10:40;1.00;99.90
57652;DHT22;43480;53.116;6.734;2023-01-26T05:13:07;1.00;99.90
57652;DHT22;43480;53.116;6.734;2023-01-26T05:15:32;1.00;99.90
57652;DHT22;43480;53.116;6.734;2023-01-26T05:17:58;1.00;99.90
57652;DHT22;43480;53.116;6.734;2023-01-26T05:20:26;1.00;99.90
57652;DHT22;43480;53.116;6.734;2023-01-26T05:22:52;1.00;99.90
57652;DHT22;43480;53.116;6.734;2023-01-26T05:25:18;1.00;99.90
57652;DHT22;43480;53.116;6.734;2023-01-26T05:27:43;1.10;99.90
57652;DHT22;43480;53.116;6.734;2023-01-26T05:30:09;1.00;99.90
57652;DHT22;43480;53.116;6.734;2023-01-26T05:32:35;1.10;99.90
57652;DHT22;43480;53.116;6.734;2023-01-26T05:35:01;1.10;99.90
57652;DHT22;43480;53.116;6.734;2023-01-26T05:37:27;1.10;99.90
57652;DHT22;43480;53.116;6.734;2023-01-26T05:39:53;1.10;99.90
57652;DHT22;43480;53.116;6.734;2023-01-26T05:42:19;1.10;99.90
57652;DHT22;43480;53.116;6.734;2023-01-26T05:44:45;1.10;99.90
57652;DHT22;43480;53.116;6.734;2023-01-26T05:47:10;1.20;99.90
57652;DHT22;43480;53.116;6.734;2023-01-26T05:49:36;1.20;99.90
57652;DHT22;43480;53.116;6.734;2023-01-26T05:52:09;1.20;99.90
57652;DHT22;43480;53.116;6.734;2023-01-26T05:54:35;1.20;99.90
57652;DHT22;43480;53.116;6.734;2023-01-26T05:57:01;1.20;99.90
57652;DHT22;43480;53.116;6.734;2023-01-26T05:59:26;1.30;99.90
57652;DHT22;43480;53.116;6.734;2023-01-26T06:01:52;1.30;99.90
57652;DHT22;43480;53.116;6.734;2023-01-26T06:04:17;1.30;99.90
57652;DHT22;43480;53.116;6.734;2023-01-26T06:06:43;1.30;99.90
57652;DHT22;43480;53.116;6.734;2023-01-26T06:09:09;1.20;99.90
57652;DHT22;43480;53.116;6.734;2023-01-26T06:11:34;1.30;99.90
57652;DHT22;43480;53.116;6.734;2023-01-26T06:14:00;1.30;99.90
57652;DHT22;43480;53.116;6.734;2023-01-26T06:16:26;1.20;99.90
57652;DHT22;43480;53.116;6.734;2023-01-26T06:18:51;1.30;99.90
57652;DHT22;43480;53.116;6.734;2023-01-26T06:21:17;1.20;99.90
57652;DHT22;43480;53.116;6.734;2023-01-26T06:23:42;1.30;99.90
57652;DHT22;43480;53.116;6.734;2023-01-26T06:26:08;1.20;99.90
57652;DHT22;43480;53.116;6.734;2023-01-26T06:28:34;1.30;99.90
57652;DHT22;43480;53.116;6.734;2023-01-26T06:31:01;1.30;99.90
57652;DHT22;43480;53.116;6.734;2023-01-26T06:33:27;1.30;99.90
57652;DHT22;43480;53.116;6.734;2023-01-26T06:35:52;1.30;99.90
57652;DHT22;43480;53.116;6.734;2023-01-26T06:38:19;1.30;99.90
57652;DHT22;43480;53.116;6.734;2023-01-26T06:40:45;1.30;99.90
57652;DHT22;43480;53.116;6.734;2023-01-26T06:43:10;1.30;99.90
57652;DHT22;43480;53.116;6.734;2023-01-26T06:45:36;1.30;99.90
57652;DHT22;43480;53.116;6.734;2023-01-26T06:48:01;1.30;99.90
57652;DHT22;43480;53.116;6.734;2023-01-26T06:50:30;1.30;99.90
57652;DHT22;43480;53.116;6.734;2023-01-26T06:52:57;1.30;99.90
57652;DHT22;43480;53.116;6.734;2023-01-26T06:55:41;1.30;99.90
57652;DHT22;43480;53.116;6.734;2023-01-26T06:58:07;1.30;99.90
57652;DHT22;43480;53.116;6.734;2023-01-26T07:00:33;1.30;99.90
57652;DHT22;43480;53.116;6.734;2023-01-26T07:02:58;1.30;99.90
57652;DHT22;43480;53.116;6.734;2023-01-26T07:05:24;1.40;99.90
57652;DHT22;43480;53.116;6.734;2023-01-26T07:07:49;1.50;99.90
57652;DHT22;43480;53.116;6.734;2023-01-26T07:10:15;1.60;99.90
57652;DHT22;43480;53.116;6.734;2023-01-26T07:12:41;1.60;99.90
57652;DHT22;43480;53.116;6.734;2023-01-26T07:15:07;1.70;99.90
57652;DHT22;43480;53.116;6.734;2023-01-26T07:17:33;1.70;99.90
57652;DHT22;43480;53.116;6.734;2023-01-26T07:19:59;1.80;99.90
57652;DHT22;43480;53.116;6.734;2023-01-26T07:22:24;1.90;99.90
57652;DHT22;43480;53.116;6.734;2023-01-26T07:24:50;2.00;99.90
57652;DHT22;43480;53.116;6.734;2023-01-26T07:27:15;2.00;99.90
57652;DHT22;43480;53.116;6.734;2023-01-26T07:29:41;2.00;99.90
57652;DHT22;43480;53.116;6.734;2023-01-26T07:32:06;2.00;99.90
57652;DHT22;43480;53.116;6.734;2023-01-26T07:34:32;2.10;99.90
57652;DHT22;43480;53.116;6.734;2023-01-26T07:36:57;2.10;99.90
57652;DHT22;43480;53.116;6.734;2023-01-26T07:39:23;2.10;99.90
57652;DHT22;43480;53.116;6.734;2023-01-26T07:41:48;2.10;99.90
57652;DHT22;43480;53.116;6.734;2023-01-26T07:44:14;2.10;99.90
57652;DHT22;43480;53.116;6.734;2023-01-26T07:46:40;2.10;99.90
57652;DHT22;43480;53.116;6.734;2023-01-26T07:49:05;2.00;99.90
57652;DHT22;43480;53.116;6.734;2023-01-26T07:51:31;2.10;99.90
57652;DHT22;43480;53.116;6.734;2023-01-26T07:53:57;2.00;99.90
57652;DHT22;43480;53.116;6.734;2023-01-26T07:56:23;2.00;99.90
57652;DHT22;43480;53.116;6.734;2023-01-26T07:58:51;2.00;99.90
57652;DHT22;43480;53.116;6.734;2023-01-26T08:01:17;2.00;99.90
57652;DHT22;43480;53.116;6.734;2023-01-26T08:03:43;2.00;99.90
57652;DHT22;43480;53.116;6.734;2023-01-26T08:06:10;2.00;99.90
57652;DHT22;43480;53.116;6.734;2023-01-26T08:08:36;2.00;99.90
57652;DHT22;43480;53.116;6.734;2023-01-26T08:11:04;2.00;99.90
57652;DHT22;43480;53.116;6.734;2023-01-26T08:13:30;2.00;99.90
57652;DHT22;43480;53.116;6.734;2023-01-26T08:16:13;2.00;99.90
57652;DHT22;43480;53.116;6.734;2023-01-26T08:18:39;2.00;99.90
57652;DHT22;43480;53.116;6.734;2023-01-26T08:21:05;2.00;99.90
57652;DHT22;43480;53.116;6.734;2023-01-26T08:23:31;2.00;99.90
57652;DHT22;43480;53.116;6.734;2023-01-26T08:26:04;2.00;99.90
57652;DHT22;43480;53.116;6.734;2023-01-26T08:28:30;1.90;99.90
57652;DHT22;43480;53.116;6.734;2023-01-26T08:30:56;2.00;99.90
57652;DHT22;43480;53.116;6.734;2023-01-26T08:33:22;2.10;99.90
57652;DHT22;43480;53.116;6.734;2023-01-26T08:35:47;2.10;99.90
57652;DHT22;43480;53.116;6.734;2023-01-26T08:38:13;2.10;99.90
57652;DHT22;43480;53.116;6.734;2023-01-26T08:40:38;2.20;99.90
57652;DHT22;43480;53.116;6.734;2023-01-26T08:43:04;2.20;99.90
57652;DHT22;43480;53.116;6.734;2023-01-26T08:45:30;2.30;99.90
57652;DHT22;43480;53.116;6.734;2023-01-26T08:47:56;2.40;99.90
57652;DHT22;43480;53.116;6.734;2023-01-26T08:50:22;2.50;99.90
57652;DHT22;43480;53.116;6.734;2023-01-26T08:52:47;2.50;99.90
57652;DHT22;43480;53.116;6.734;2023-01-26T08:55:13;2.60;99.90
57652;DHT22;43480;53.116;6.734;2023-01-26T08:57:38;2.70;99.90
57652;DHT22;43480;53.116;6.734;2023-01-26T09:00:04;2.70;99.90
57652;DHT22;43480;53.116;6.734;2023-01-26T09:02:31;2.80;99.90
57652;DHT22;43480;53.116;6.734;2023-01-26T09:04:57;2.80;99.90
57652;DHT22;43480;53.116;6.734;2023-01-26T09:07:22;3.00;99.90
57652;DHT22;43480;53.116;6.734;2023-01-26T09:09:48;3.00;99.90
57652;DHT22;43480;53.116;6.734;2023-01-26T09:12:13;3.10;99.90
57652;DHT22;43480;53.116;6.734;2023-01-26T09:14:39;3.20;99.90
57652;DHT22;43480;53.116;6.734;2023-01-26T09:17:05;3.30;99.90
57652;DHT22;43480;53.116;6.734;2023-01-26T09:19:31;3.40;99.90
57652;DHT22;43480;53.116;6.734;2023-01-26T09:21:56;3.40;99.90
57652;DHT22;43480;53.116;6.734;2023-01-26T09:24:22;3.50;99.90
57652;DHT22;43480;53.116;6.734;2023-01-26T09:26:48;3.60;99.90
57652;DHT22;43480;53.116;6.734;2023-01-26T09:29:14;3.70;99.90
57652;DHT22;43480;53.116;6.734;2023-01-26T09:31:39;3.70;99.90
57652;DHT22;43480;53.116;6.734;2023-01-26T09:34:05;3.90;99.90
57652;DHT22;43480;53.116;6.734;2023-01-26T09:36:30;4.00;99.90
57652;DHT22;43480;53.116;6.734;2023-01-26T09:38:56;4.10;99.90
57652;DHT22;43480;53.116;6.734;2023-01-26T09:43:49;4.20;99.90
57652;DHT22;43480;53.116;6.734;2023-01-26T09:46:18;4.30;99.90
57652;DHT22;43480;53.116;6.734;2023-01-26T09:51:42;4.50;99.90
57652;DHT22;43480;53.116;6.734;2023-01-26T09:56:41;4.80;99.90
57652;DHT22;43480;53.116;6.734;2023-01-26T10:01:49;5.00;99.90
57652;DHT22;43480;53.116;6.734;2023-01-26T10:04:28;5.00;99.90
57652;DHT22;43480;53.116;6.734;2023-01-26T10:06:57;5.00;99.90
57652;DHT22;43480;53.116;6.734;2023-01-26T10:09:25;4.90;99.90
57652;DHT22;43480;53.116;6.734;2023-01-26T10:11:53;4.90;99.90
57652;DHT22;43480;53.116;6.734;2023-01-26T10:16:55;5.00;99.90
57652;DHT22;43480;53.116;6.734;2023-01-26T10:21:48;5.10;99.90
57652;DHT22;43480;53.116;6.734;2023-01-26T10:24:16;5.20;99.90
57652;DHT22;43480;53.116;6.734;2023-01-26T10:26:43;5.20;99.90
57652;DHT22;43480;53.116;6.734;2023-01-26T10:29:11;5.30;99.90
57652;DHT22;43480;53.116;6.734;2023-01-26T10:31:39;5.40;99.90
57652;DHT22;43480;53.116;6.734;2023-01-26T10:36:34;5.50;99.90
57652;DHT22;43480;53.116;6.734;2023-01-26T10:39:06;5.50;99.90
57652;DHT22;43480;53.116;6.734;2023-01-26T10:41:32;5.60;99.90
57652;DHT22;43480;53.116;6.734;2023-01-26T10:44:43;5.70;99.90
57652;DHT22;43480;53.116;6.734;2023-01-26T10:46:43;5.80;99.90
57652;DHT22;43480;53.116;6.734;2023-01-26T10:51:36;6.10;99.90
57652;DHT22;43480;53.116;6.734;2023-01-26T10:54:19;6.20;99.90
57652;DHT22;43480;53.116;6.734;2023-01-26T10:59:11;6.40;99.90
57652;DHT22;43480;53.116;6.734;2023-01-26T11:01:51;6.60;99.90
57652;DHT22;43480;53.116;6.734;2023-01-26T11:04:16;6.70;99.90
57652;DHT22;43480;53.116;6.734;2023-01-26T11:06:43;6.80;99.90
57652;DHT22;43480;53.116;6.734;2023-01-26T11:11:35;7.00;99.90
57652;DHT22;43480;53.116;6.734;2023-01-26T11:14:10;7.10;99.90
57652;DHT22;43480;53.116;6.734;2023-01-26T11:16:39;7.20;99.90
57652;DHT22;43480;53.116;6.734;2023-01-26T11:19:08;7.20;99.90
57652;DHT22;43480;53.116;6.734;2023-01-26T11:21:44;7.30;99.90
57652;DHT22;43480;53.116;6.734;2023-01-26T11:36:39;7.30;99.90
57652;DHT22;43480;53.116;6.734;2023-01-26T11:39:16;7.30;99.90
57652;DHT22;43480;53.116;6.734;2023-01-26T11:41:48;7.40;99.90
57652;DHT22;43480;53.116;6.734;2023-01-26T11:57:00;7.80;99.90
57652;DHT22;43480;53.116;6.734;2023-01-26T11:59:31;7.80;99.90
57652;DHT22;43480;53.116;6.734;2023-01-26T12:04:23;7.60;99.90
57652;DHT22;43480;53.116;6.734;2023-01-26T12:06:57;7.50;99.90
57652;DHT22;43480;53.116;6.734;2023-01-26T12:14:21;7.10;99.90
57652;DHT22;43480;53.116;6.734;2023-01-26T12:24:56;7.30;99.90
57652;DHT22;43480;53.116;6.734;2023-01-26T12:27:36;7.30;99.90
57652;DHT22;43480;53.116;6.734;2023-01-26T12:30:07;7.40;99.90
57652;DHT22;43480;53.116;6.734;2023-01-26T12:32:43;7.50;99.90
57652;DHT22;43480;53.116;6.734;2023-01-26T12:35:10;7.50;99.90
57652;DHT22;43480;53.116;6.734;2023-01-26T12:37:46;7.50;99.90
57652;DHT22;43480;53.116;6.734;2023-01-26T12:40:31;7.60;99.90
57652;DHT22;43480;53.116;6.734;2023-01-26T12:45:31;7.60;99.90
57652;DHT22;43480;53.116;6.734;2023-01-26T12:48:03;7.60;99.90
57652;DHT22;43480;53.116;6.734;2023-01-26T12:55:53;7.80;99.90
57652;DHT22;43480;53.116;6.734;2023-01-26T12:58:54;7.80;99.90
57652;DHT22;43480;53.116;6.734;2023-01-26T13:01:13;7.80;99.90
57652;DHT22;43480;53.116;6.734;2023-01-26T13:03:44;7.70;99.90
57652;DHT22;43480;53.116;6.734;2023-01-26T13:11:01;7.50;99.90
57652;DHT22;43480;53.116;6.734;2023-01-26T13:18:54;7.40;99.90
57652;DHT22;43480;53.116;6.734;2023-01-26T13:31:55;7.60;99.90
57652;DHT22;43480;53.116;6.734;2023-01-26T13:34:24;7.60;99.90
57652;DHT22;43480;53.116;6.734;2023-01-26T13:36:50;7.70;99.90
57652;DHT22;43480;53.116;6.734;2023-01-26T13:39:36;7.60;99.90
57652;DHT22;43480;53.116;6.734;2023-01-26T13:42:02;7.70;99.90
57652;DHT22;43480;53.116;6.734;2023-01-26T13:44:40;7.60;99.90
57652;DHT22;43480;53.116;6.734;2023-01-26T13:47:14;7.60;99.90
57652;DHT22;43480;53.116;6.734;2023-01-26T13:49:41;7.60;99.90
57652;DHT22;43480;53.116;6.734;2023-01-26T13:52:26;7.60;99.90
57652;DHT22;43480;53.116;6.734;2023-01-26T13:54:53;7.60;99.90
57652;DHT22;43480;53.116;6.734;2023-01-26T13:57:25;7.60;99.90
57652;DHT22;43480;53.116;6.734;2023-01-26T13:59:52;7.50;99.90
57652;DHT22;43480;53.116;6.734;2023-01-26T14:02:22;7.50;99.90
57652;DHT22;43480;53.116;6.734;2023-01-26T14:04:52;7.40;99.90
57652;DHT22;43480;53.116;6.734;2023-01-26T14:07:21;7.40;99.90
57652;DHT22;43480;53.116;6.734;2023-01-26T14:09:49;7.30;99.90
57652;DHT22;43480;53.116;6.734;2023-01-26T14:12:17;7.30;99.90
57652;DHT22;43480;53.116;6.734;2023-01-26T14:14:45;7.30;99.90
57652;DHT22;43480;53.116;6.734;2023-01-26T14:17:31;7.30;99.90
57652;DHT22;43480;53.116;6.734;2023-01-26T14:19:57;7.30;99.90
57652;DHT22;43480;53.116;6.734;2023-01-26T14:22:25;7.30;99.90
57652;DHT22;43480;53.116;6.734;2023-01-26T14:24:51;7.30;99.90
57652;DHT22;43480;53.116;6.734;2023-01-26T14:30:02;7.30;99.90
57652;DHT22;43480;53.116;6.734;2023-01-26T14:32:33;7.30;99.90
57652;DHT22;43480;53.116;6.734;2023-01-26T14:34:59;7.20;99.90
57652;DHT22;43480;53.116;6.734;2023-01-26T14:37:25;7.20;99.90
57652;DHT22;43480;53.116;6.734;2023-01-26T14:42:35;7.20;99.90
57652;DHT22;43480;53.116;6.734;2023-01-26T14:45:01;7.20;99.90
57652;DHT22;43480;53.116;6.734;2023-01-26T14:47:30;7.10;99.90
57652;DHT22;43480;53.116;6.734;2023-01-26T14:50:05;7.10;99.90
57652;DHT22;43480;53.116;6.734;2023-01-26T14:52:32;7.10;99.90
57652;DHT22;43480;53.116;6.734;2023-01-26T14:55:02;7.10;99.90
57652;DHT22;43480;53.116;6.734;2023-01-26T14:57:30;7.00;99.90
57652;DHT22;43480;53.116;6.734;2023-01-26T14:59:56;7.00;99.90
57652;DHT22;43480;53.116;6.734;2023-01-26T15:02:43;6.90;99.90
57652;DHT22;43480;53.116;6.734;2023-01-26T15:05:12;6.90;99.90
57652;DHT22;43480;53.116;6.734;2023-01-26T15:15:36;6.80;99.90
57652;DHT22;43480;53.116;6.734;2023-01-26T15:18:18;6.80;99.90
57652;DHT22;43480;53.116;6.734;2023-01-26T15:20:52;6.70;99.90
57652;DHT22;43480;53.116;6.734;2023-01-26T15:25:49;6.70;99.90
57652;DHT22;43480;53.116;6.734;2023-01-26T15:28:19;6.70;99.90
57652;DHT22;43480;53.116;6.734;2023-01-26T15:30:46;6.70;99.90
57652;DHT22;43480;53.116;6.734;2023-01-26T15:33:57;6.60;99.90
57652;DHT22;43480;53.116;6.734;2023-01-26T15:35:57;6.60;99.90
57652;DHT22;43480;53.116;6.734;2023-01-26T15:38:23;6.50;99.90
57652;DHT22;43480;53.116;6.734;2023-01-26T15:40:48;6.40;99.90
57652;DHT22;43480;53.116;6.734;2023-01-26T15:43:15;6.40;99.90
57652;DHT22;43480;53.116;6.734;2023-01-26T15:45:45;6.40;99.90
57652;DHT22;43480;53.116;6.734;2023-01-26T15:48:12;6.40;99.90
57652;DHT22;43480;53.116;6.734;2023-01-26T15:50:38;6.40;99.90
57652;DHT22;43480;53.116;6.734;2023-01-26T15:53:03;6.30;99.90
57652;DHT22;43480;53.116;6.734;2023-01-26T15:55:30;6.30;99.90
57652;DHT22;43480;53.116;6.734;2023-01-26T15:57:56;6.20;99.90
57652;DHT22;43480;53.116;6.734;2023-01-26T16:00:22;6.10;99.90
57652;DHT22;43480;53.116;6.734;2023-01-26T16:02:48;6.00;99.90
57652;DHT22;43480;53.116;6.734;2023-01-26T16:05:17;6.00;99.90
57652;DHT22;43480;53.116;6.734;2023-01-26T16:07:43;5.90;99.90
57652;DHT22;43480;53.116;6.734;2023-01-26T16:10:09;5.80;99.90
57652;DHT22;43480;53.116;6.734;2023-01-26T16:12:35;5.80;99.90
57652;DHT22;43480;53.116;6.734;2023-01-26T16:15:01;5.80;99.90
57652;DHT22;43480;53.116;6.734;2023-01-26T16:17:26;5.80;99.90
57652;DHT22;43480;53.116;6.734;2023-01-26T16:19:52;5.70;99.90
57652;DHT22;43480;53.116;6.734;2023-01-26T16:22:17;5.70;99.90
57652;DHT22;43480;53.116;6.734;2023-01-26T16:24:43;5.70;99.90
57652;DHT22;43480;53.116;6.734;2023-01-26T16:27:09;5.70;99.90
57652;DHT22;43480;53.116;6.734;2023-01-26T16:29:35;5.70;99.90
57652;DHT22;43480;53.116;6.734;2023-01-26T16:32:00;5.60;99.90
57652;DHT22;43480;53.116;6.734;2023-01-26T16:34:26;5.50;99.90
57652;DHT22;43480;53.116;6.734;2023-01-26T16:36:52;5.50;99.90
57652;DHT22;43480;53.116;6.734;2023-01-26T16:39:17;5.40;99.90
57652;DHT22;43480;53.116;6.734;2023-01-26T16:41:43;5.40;99.90
57652;DHT22;43480;53.116;6.734;2023-01-26T16:44:13;5.40;99.90
57652;DHT22;43480;53.116;6.734;2023-01-26T16:46:41;5.40;99.90
57652;DHT22;43480;53.116;6.734;2023-01-26T16:49:11;5.30;99.90
57652;DHT22;43480;53.116;6.734;2023-01-26T16:51:37;5.30;99.90
57652;DHT22;43480;53.116;6.734;2023-01-26T16:54:03;5.30;99.90
57652;DHT22;43480;53.116;6.734;2023-01-26T16:56:29;5.20;99.90
57652;DHT22;43480;53.116;6.734;2023-01-26T16:58:54;5.20;99.90
57652;DHT22;43480;53.116;6.734;2023-01-26T17:01:21;5.20;99.90
57652;DHT22;43480;53.116;6.734;2023-01-26T17:03:47;5.10;99.90
57652;DHT22;43480;53.116;6.734;2023-01-26T17:06:13;5.10;99.90
57652;DHT22;43480;53.116;6.734;2023-01-26T17:08:39;5.10;99.90
57652;DHT22;43480;53.116;6.734;2023-01-26T17:11:05;5.10;99.90
57652;DHT22;43480;53.116;6.734;2023-01-26T17:13:30;5.00;99.90
57652;DHT22;43480;53.116;6.734;2023-01-26T17:15:56;5.00;99.90
57652;DHT22;43480;53.116;6.734;2023-01-26T17:18:22;5.00;99.90
57652;DHT22;43480;53.116;6.734;2023-01-26T17:20:48;4.90;99.90
57652;DHT22;43480;53.116;6.734;2023-01-26T17:23:13;4.90;99.90
57652;DHT22;43480;53.116;6.734;2023-01-26T17:25:39;4.80;99.90
57652;DHT22;43480;53.116;6.734;2023-01-26T17:28:04;4.80;99.90
57652;DHT22;43480;53.116;6.734;2023-01-26T17:30:30;4.80;99.90
57652;DHT22;43480;53.116;6.734;2023-01-26T17:32:56;4.70;99.90
57652;DHT22;43480;53.116;6.734;2023-01-26T17:35:21;4.70;99.90
57652;DHT22;43480;53.116;6.734;2023-01-26T17:37:47;4.70;99.90
57652;DHT22;43480;53.116;6.734;2023-01-26T17:40:12;4.60;99.90
57652;DHT22;43480;53.116;6.734;2023-01-26T17:42:38;4.50;99.90
57652;DHT22;43480;53.116;6.734;2023-01-26T17:45:04;4.50;99.90